Time;durP1;ratioP1;P1;durP2;ratioP2;P2;SDS_P1;SDS_P2;PMS_P1;PMS_P2;Temp;Humidity;BMP_temperature;BMP_pressure;BME280_temperature;BME280_humidity;BME280_pressure;Samples;Min_cycle;Max_cycle;Signal;HPM_P1;HPM_P2
2024/01/17 00:01:59;;;;;;;9.38;6.38;;;-4.40;99.90;;;;;;5012273;28;20026;-79
2024/01/17 00:04:27;;;;;;;8.10;6.07;;;-4.40;99.90;;;;;;5012007;28;20471;-77
2024/01/17 00:06:55;;;;;;;12.18;6.00;;;-4.30;99.90;;;;;;5012174;28;20057;-79
2024/01/17 00:09:21;;;;;;;9.88;6.68;;;-4.30;99.90;;;;;;5011969;28;20026;-80
2024/01/17 00:11:49;;;;;;;8.48;5.35;;;-4.20;99.90;;;;;;5004294;28;20022;-79
2024/01/17 00:14:15;;;;;;;8.77;5.63;;;-4.30;99.90;;;;;;5009298;28;20018;-77
2024/01/17 00:16:40;;;;;;;6.70;4.70;;;-4.40;99.90;;;;;;5012118;28;20026;-79
2024/01/17 00:19:06;;;;;;;14.52;6.22;;;-4.40;99.90;;;;;;5008268;28;20388;-78
2024/01/17 00:21:32;;;;;;;10.90;7.05;;;-4.40;99.90;;;;;;5012592;28;20080;-80
2024/01/17 00:23:58;;;;;;;10.57;6.63;;;-4.30;99.90;;;;;;5011910;28;20026;-78
2024/01/17 00:26:24;;;;;;;10.00;5.47;;;-4.30;99.90;;;;;;5011562;28;20101;-79
2024/01/17 00:28:50;;;;;;;16.58;7.20;;;-4.30;99.90;;;;;;5012102;28;20171;-79
2024/01/17 00:31:15;;;;;;;8.82;6.05;;;-4.30;99.90;;;;;;5003500;28;20032;-79
2024/01/17 00:33:41;;;;;;;11.45;7.00;;;-4.30;99.90;;;;;;5010481;28;20054;-79
2024/01/17 00:36:08;;;;;;;11.82;6.93;;;-4.30;99.90;;;;;;5012375;28;20049;-79
2024/01/17 00:38:34;;;;;;;9.87;6.57;;;-4.30;99.90;;;;;;5013433;28;20018;-78
2024/01/17 00:41:00;;;;;;;9.23;6.28;;;-4.30;99.90;;;;;;5008992;28;20861;-80
2024/01/17 00:43:26;;;;;;;11.05;6.40;;;-4.30;99.90;;;;;;5011017;28;20027;-80
2024/01/17 00:45:51;;;;;;;9.20;6.03;;;-4.30;99.90;;;;;;5012884;28;20052;-79
2024/01/17 00:48:18;;;;;;;13.05;7.32;;;-4.40;99.90;;;;;;5012830;28;20436;-80
2024/01/17 00:50:44;;;;;;;9.65;6.22;;;-4.40;99.90;;;;;;4998537;28;20148;-79
2024/01/17 00:53:10;;;;;;;10.32;5.43;;;-4.40;99.90;;;;;;5015450;28;20049;-79
2024/01/17 00:55:36;;;;;;;17.02;7.20;;;-4.40;99.90;;;;;;5015559;28;20093;-80
2024/01/17 00:58:02;;;;;;;12.13;6.90;;;-4.30;99.90;;;;;;5015574;28;20036;-78
2024/01/17 01:00:28;;;;;;;15.20;8.73;;;-4.30;99.90;;;;;;5010505;28;20030;-79
2024/01/17 01:02:54;;;;;;;12.10;7.35;;;-4.30;99.90;;;;;;5015247;28;20381;-79
2024/01/17 01:05:19;;;;;;;16.05;8.73;;;-4.30;99.90;;;;;;5019501;28;20032;-78
2024/01/17 01:07:47;;;;;;;13.73;7.47;;;-4.30;99.90;;;;;;4997980;28;20038;-80
2024/01/17 01:10:13;;;;;;;11.80;7.95;;;-4.30;99.90;;;;;;5011829;28;20022;-80
2024/01/17 01:12:39;;;;;;;14.32;8.95;;;-4.40;99.90;;;;;;5013957;28;20025;-80
2024/01/17 01:15:06;;;;;;;14.80;8.55;;;-4.40;99.60;;;;;;5019941;28;20022;-78
2024/01/17 01:17:32;;;;;;;14.68;9.32;;;-4.50;99.50;;;;;;5019786;28;20029;-79
2024/01/17 01:19:57;;;;;;;14.95;8.18;;;-4.60;99.60;;;;;;5019205;28;20022;-79
2024/01/17 01:22:23;;;;;;;13.77;8.05;;;-4.60;99.80;;;;;;5016161;28;20040;-78
2024/01/17 01:24:49;;;;;;;12.52;7.93;;;-4.60;99.70;;;;;;5016068;28;20126;-79
2024/01/17 01:27:15;;;;;;;12.90;7.75;;;-4.60;99.40;;;;;;5015309;28;20636;-80
2024/01/17 01:29:42;;;;;;;8.57;6.05;;;-4.80;99.50;;;;;;5015111;28;20030;-79
2024/01/17 01:32:08;;;;;;;11.93;7.25;;;-5.00;99.40;;;;;;5015131;28;20487;-79
2024/01/17 01:34:33;;;;;;;15.50;8.32;;;-5.20;99.90;;;;;;5013773;28;20068;-78
2024/01/17 01:37:00;;;;;;;11.07;7.13;;;-5.30;99.90;;;;;;5013143;28;20018;-79
2024/01/17 01:39:26;;;;;;;10.87;7.57;;;-5.40;99.90;;;;;;5004287;28;20088;-80
2024/01/17 01:41:52;;;;;;;12.52;7.40;;;-5.40;99.90;;;;;;5014964;28;20434;-79
2024/01/17 01:44:18;;;;;;;15.77;7.53;;;-5.50;99.80;;;;;;5014984;28;20080;-80
2024/01/17 01:46:46;;;;;;;15.10;7.50;;;-5.50;99.90;;;;;;5014335;28;20046;-79
2024/01/17 01:49:15;;;;;;;16.95;7.55;;;-5.50;99.90;;;;;;5014663;28;20080;-78
2024/01/17 01:51:44;;;;;;;15.63;8.32;;;-5.50;99.90;;;;;;5014773;28;20029;-79
2024/01/17 01:54:12;;;;;;;14.70;8.27;;;-5.50;99.90;;;;;;4996560;28;20018;-80
2024/01/17 01:56:38;;;;;;;15.55;9.93;;;-5.50;99.90;;;;;;5014486;28;20499;-79
2024/01/17 01:59:06;;;;;;;14.50;8.27;;;-5.60;99.90;;;;;;5013996;28;20014;-80
2024/01/17 02:01:32;;;;;;;11.05;7.55;;;-5.50;99.90;;;;;;5014402;28;20022;-78
2024/01/17 02:04:00;;;;;;;11.93;8.40;;;-5.50;99.90;;;;;;5011513;28;20060;-80
2024/01/17 02:06:30;;;;;;;13.68;7.13;;;-5.50;99.90;;;;;;4998103;28;20026;-79
2024/01/17 02:08:57;;;;;;;14.52;8.80;;;-5.40;99.90;;;;;;5014815;28;20105;-79
2024/01/17 02:11:23;;;;;;;12.75;6.90;;;-5.40;99.90;;;;;;5014587;28;20022;-79
2024/01/17 02:13:50;;;;;;;12.52;6.85;;;-5.30;99.90;;;;;;5014879;28;20133;-79
2024/01/17 02:16:18;;;;;;;13.07;7.38;;;-5.40;99.90;;;;;;5017851;28;20018;-79
2024/01/17 02:18:44;;;;;;;14.95;8.57;;;-5.50;99.90;;;;;;5020995;28;20069;-78
2024/01/17 02:21:11;;;;;;;12.70;7.43;;;-5.50;99.90;;;;;;5009853;28;20565;-80
2024/01/17 02:23:37;;;;;;;13.20;8.77;;;-5.50;99.90;;;;;;5010532;28;20046;-78
2024/01/17 02:26:03;;;;;;;12.25;7.40;;;-5.50;99.90;;;;;;5014046;28;20093;-81
2024/01/17 02:28:30;;;;;;;14.20;8.02;;;-5.50;99.90;;;;;;5013928;28;20029;-80
2024/01/17 02:30:57;;;;;;;;;;;-5.60;99.90;;;;;;5013037;28;20018;-81
2024/01/17 02:33:23;;;;;;;12.17;7.57;;;-5.50;99.90;;;;;;4994238;28;19989;-80
2024/01/17 02:35:49;;;;;;;12.65;8.20;;;-5.60;99.90;;;;;;5013125;28;20390;-80
2024/01/17 02:38:14;;;;;;;14.15;8.68;;;-5.50;99.90;;;;;;5013527;28;20045;-81
2024/01/17 02:40:40;;;;;;;17.30;9.25;;;-5.40;99.90;;;;;;5013445;28;20490;-81
2024/01/17 02:43:06;;;;;;;12.20;6.20;;;-5.50;99.90;;;;;;4995805;28;20022;-80
2024/01/17 02:45:32;;;;;;;13.10;8.13;;;-5.60;99.90;;;;;;5013084;28;20049;-79
2024/01/17 02:47:58;;;;;;;12.73;5.97;;;-5.70;99.90;;;;;;5013433;28;20033;-80
2024/01/17 02:50:24;;;;;;;10.55;6.03;;;-5.90;99.90;;;;;;5013015;28;20022;-79
2024/01/17 02:52:52;;;;;;;17.70;8.73;;;-6.00;99.90;;;;;;5011814;28;20030;-79
2024/01/17 02:55:19;;;;;;;13.38;7.78;;;-6.10;99.90;;;;;;4995708;28;20275;-80
2024/01/17 02:57:45;;;;;;;14.25;6.90;;;-6.20;99.90;;;;;;5013507;28;20467;-80
2024/01/17 03:00:11;;;;;;;13.90;8.07;;;-6.20;99.90;;;;;;5013379;28;20068;-79
2024/01/17 03:02:37;;;;;;;14.80;6.78;;;-6.30;99.80;;;;;;5012674;28;20029;-81
2024/01/17 03:05:04;;;;;;;18.70;7.72;;;-6.30;99.90;;;;;;5011495;28;20049;-79
2024/01/17 03:07:33;;;;;;;8.13;5.78;;;-6.30;99.90;;;;;;5013308;28;20143;-79
2024/01/17 03:09:59;;;;;;;16.05;8.45;;;-6.30;99.80;;;;;;5012931;28;20169;-80
2024/01/17 03:12:25;;;;;;;9.50;5.28;;;-6.40;99.90;;;;;;5012374;28;20108;-80
2024/01/17 03:14:51;;;;;;;11.65;6.60;;;-6.40;99.90;;;;;;5011828;28;20379;-79
2024/01/17 03:17:17;;;;;;;13.30;5.93;;;-6.40;99.90;;;;;;5013045;28;20033;-79
2024/01/17 03:19:44;;;;;;;14.10;6.18;;;-6.40;99.80;;;;;;4994998;28;20382;-79
2024/01/17 03:22:10;;;;;;;8.63;5.05;;;-6.50;99.80;;;;;;5012744;28;20502;-79
2024/01/17 03:24:39;;;;;;;14.15;7.63;;;-6.60;99.80;;;;;;4995058;28;20030;-81
2024/01/17 03:27:05;;;;;;;9.55;5.55;;;-6.60;99.90;;;;;;4999812;28;20069;-80
2024/01/17 03:29:31;;;;;;;14.02;7.30;;;-6.60;99.90;;;;;;5012730;28;20061;-79
2024/01/17 03:31:56;;;;;;;11.65;6.63;;;-6.50;99.90;;;;;;5012624;28;20030;-78
2024/01/17 03:34:22;;;;;;;13.75;6.88;;;-6.40;99.90;;;;;;4993248;28;20049;-79
2024/01/17 03:36:48;;;;;;;13.63;7.55;;;-6.40;99.70;;;;;;5012454;28;20447;-80
2024/01/17 03:39:14;;;;;;;9.63;6.38;;;-6.40;99.90;;;;;;5012673;28;20475;-78
2024/01/17 03:41:40;;;;;;;11.07;5.88;;;-6.40;99.80;;;;;;5012351;28;20961;-79
2024/01/17 03:44:06;;;;;;;11.50;6.50;;;-6.40;99.90;;;;;;4995067;28;20022;-79
2024/01/17 03:46:32;;;;;;;12.82;7.40;;;-6.40;99.30;;;;;;5012699;28;20053;-79
2024/01/17 03:48:58;;;;;;;10.23;6.18;;;-6.50;99.20;;;;;;4996392;28;20022;-80
2024/01/17 03:51:24;;;;;;;9.80;6.13;;;-6.50;98.90;;;;;;5020494;28;20033;-81
2024/01/17 03:53:50;;;;;;;14.55;5.07;;;-6.70;98.70;;;;;;5015236;28;20052;-79
2024/01/17 03:56:15;;;;;;;14.45;7.30;;;-6.80;98.80;;;;;;4996402;28;20056;-80
2024/01/17 03:58:42;;;;;;;11.02;6.13;;;-7.00;98.60;;;;;;5012759;28;20050;-81
2024/01/17 04:01:11;;;;;;;13.63;6.32;;;-7.20;99.20;;;;;;5012915;28;20018;-78
2024/01/17 04:03:37;;;;;;;8.00;5.40;;;-7.20;99.20;;;;;;5010802;28;20030;-80
2024/01/17 04:06:03;;;;;;;9.80;4.63;;;-7.30;99.40;;;;;;5012415;28;20026;-79
2024/01/17 04:08:29;;;;;;;8.80;5.47;;;-7.40;99.60;;;;;;5012627;28;20034;-79
2024/01/17 04:10:55;;;;;;;11.73;5.72;;;-7.50;99.40;;;;;;5012263;28;20418;-79
2024/01/17 04:13:21;;;;;;;9.07;4.75;;;-7.60;99.30;;;;;;5012332;28;20030;-79
2024/01/17 04:15:47;;;;;;;11.73;5.45;;;-7.60;99.60;;;;;;5012094;28;20025;-81
2024/01/17 04:18:13;;;;;;;9.95;5.35;;;-7.70;99.50;;;;;;5012660;28;20014;-79
2024/01/17 04:20:39;;;;;;;5.70;4.05;;;-7.70;99.40;;;;;;5010714;28;20018;-80
2024/01/17 04:23:05;;;;;;;12.95;5.78;;;-7.80;99.10;;;;;;5009100;28;20125;-80
2024/01/17 04:25:31;;;;;;;11.20;5.97;;;-7.90;99.00;;;;;;5010450;28;20032;-78
2024/01/17 04:27:57;;;;;;;11.27;6.53;;;-8.00;99.00;;;;;;5012014;28;20117;-80
2024/01/17 04:30:24;;;;;;;12.88;6.05;;;-8.00;99.20;;;;;;5012021;28;20099;-80
2024/01/17 04:32:49;;;;;;;12.45;6.32;;;-8.00;99.20;;;;;;5011936;28;20456;-80
2024/01/17 04:35:21;;;;;;;11.68;5.63;;;-8.00;99.20;;;;;;5009104;28;20053;-79
2024/01/17 04:37:47;;;;;;;9.18;5.75;;;-8.00;99.00;;;;;;5012060;28;20033;-81
2024/01/17 04:40:13;;;;;;;15.85;7.40;;;-8.10;98.70;;;;;;5011831;28;20026;-80
2024/01/17 04:42:39;;;;;;;7.57;5.10;;;-8.10;98.80;;;;;;5012240;28;20022;-81
2024/01/17 04:45:06;;;;;;;11.60;5.00;;;-8.20;98.80;;;;;;5012122;28;20038;-80
2024/01/17 04:47:32;;;;;;;11.35;4.03;;;-8.20;98.70;;;;;;5011169;28;20147;-79
2024/01/17 04:49:57;;;;;;;12.38;6.03;;;-8.30;98.60;;;;;;5004157;28;20096;-82
2024/01/17 04:52:23;;;;;;;7.60;4.93;;;-8.40;98.50;;;;;;5013014;28;20054;-80
2024/01/17 04:54:49;;;;;;;14.93;5.97;;;-8.50;98.50;;;;;;5012901;28;20351;-78
2024/01/17 04:57:16;;;;;;;13.95;6.05;;;-8.60;98.50;;;;;;5011831;28;20062;-81
2024/01/17 04:59:42;;;;;;;12.88;5.03;;;-8.60;98.50;;;;;;5012926;28;20060;-80
2024/01/17 05:02:08;;;;;;;12.93;6.95;;;-8.60;98.40;;;;;;5014575;28;20030;-82
2024/01/17 05:04:34;;;;;;;8.97;3.93;;;-8.70;98.50;;;;;;5010966;28;20100;-80
2024/01/17 05:07:01;;;;;;;10.45;5.68;;;-8.70;98.60;;;;;;5011480;28;20201;-82
2024/01/17 05:09:28;;;;;;;12.65;5.40;;;-8.70;98.80;;;;;;5011968;28;20050;-80
2024/01/17 05:11:56;;;;;;;8.82;4.22;;;-8.70;98.70;;;;;;5010190;28;20208;-80
2024/01/17 05:14:22;;;;;;;13.88;7.22;;;-8.80;98.60;;;;;;5011396;28;20026;-80
2024/01/17 05:16:48;;;;;;;9.65;5.30;;;-8.80;98.70;;;;;;5011584;28;20513;-80
2024/01/17 05:19:14;;;;;;;5.95;4.05;;;-8.70;98.70;;;;;;5011797;28;20479;-81
2024/01/17 05:21:39;;;;;;;10.45;5.28;;;-8.70;98.60;;;;;;5012871;28;20045;-81
2024/01/17 05:24:05;;;;;;;8.13;4.40;;;-8.70;98.70;;;;;;5012752;28;20026;-81
2024/01/17 05:26:31;;;;;;;10.48;6.07;;;-8.60;98.70;;;;;;5011674;28;20021;-80
2024/01/17 05:28:57;;;;;;;12.82;6.65;;;-8.60;98.50;;;;;;5012024;28;20033;-82
2024/01/17 05:31:23;;;;;;;9.70;5.45;;;-8.60;98.20;;;;;;4994902;28;20022;-80
2024/01/17 05:33:49;;;;;;;9.98;6.57;;;-8.50;98.20;;;;;;5011483;28;20022;-81
2024/01/17 05:36:14;;;;;;;10.38;4.88;;;-8.50;98.10;;;;;;5016584;28;20037;-81
2024/01/17 05:38:40;;;;;;;10.55;6.68;;;-8.40;98.00;;;;;;5018316;28;20097;-78
2024/01/17 05:41:06;;;;;;;11.70;5.43;;;-8.40;98.00;;;;;;5014833;28;20030;-82
2024/01/17 05:43:32;;;;;;;7.85;3.85;;;-8.30;98.10;;;;;;5016805;28;20025;-83
2024/01/17 05:45:58;;;;;;;11.40;6.07;;;-8.40;97.90;;;;;;5003818;28;20407;-80
2024/01/17 05:48:27;;;;;;;12.00;6.88;;;-8.40;97.90;;;;;;5014270;28;20041;-80
2024/01/17 05:50:52;;;;;;;11.20;5.78;;;-8.30;98.10;;;;;;5011401;28;20022;-85
2024/01/17 05:53:18;;;;;;;10.18;5.25;;;-8.20;98.20;;;;;;5015211;28;20049;-80
2024/01/17 05:55:44;;;;;;;8.95;4.75;;;-8.20;98.30;;;;;;5014124;28;20416;-82
2024/01/17 05:58:10;;;;;;;11.88;5.95;;;-8.30;98.40;;;;;;5027366;28;20037;-80
2024/01/17 06:00:37;;;;;;;11.02;4.43;;;-8.30;98.50;;;;;;5025700;28;20777;-80
2024/01/17 06:03:05;;;;;;;7.53;6.13;;;-8.30;98.80;;;;;;5015676;28;20026;-81
2024/01/17 06:05:30;;;;;;;9.88;4.88;;;-8.20;98.80;;;;;;5015098;28;20026;-81
2024/01/17 06:07:56;;;;;;;8.90;4.60;;;-8.20;98.90;;;;;;5000429;28;20091;-81
2024/01/17 06:10:25;;;;;;;4.63;2.75;;;-8.20;99.10;;;;;;5013907;28;20113;-81
2024/01/17 06:12:50;;;;;;;7.25;4.18;;;-8.20;99.00;;;;;;5013442;28;20022;-86
2024/01/17 06:15:17;;;;;;;10.90;5.43;;;-8.20;99.00;;;;;;5014862;28;20022;-81
2024/01/17 06:17:44;;;;;;;15.25;5.00;;;-8.30;98.80;;;;;;5015277;28;20053;-82
2024/01/17 06:20:11;;;;;;;7.77;5.07;;;-8.30;98.90;;;;;;5015084;28;20026;-82
2024/01/17 06:22:37;;;;;;;;;;;-8.20;98.90;;;;;;5013934;28;20140;-82
2024/01/17 06:25:04;;;;;;;4.20;3.10;;;-8.20;98.80;;;;;;5015808;28;19974;-81
2024/01/17 06:27:30;;;;;;;13.13;5.22;;;-8.30;98.70;;;;;;4997321;28;20110;-82
2024/01/17 06:29:56;;;;;;;9.40;4.68;;;-8.40;98.80;;;;;;5018916;28;20103;-84
2024/01/17 06:32:22;;;;;;;8.60;4.90;;;-8.40;99.30;;;;;;5014840;28;20026;-82
2024/01/17 06:34:48;;;;;;;8.38;3.70;;;-8.40;99.20;;;;;;4997218;28;20029;-84
2024/01/17 06:37:15;;;;;;;7.25;3.92;;;-8.40;99.00;;;;;;4994072;28;20117;-83
2024/01/17 06:39:41;;;;;;;9.70;4.67;;;-8.40;98.90;;;;;;5007004;28;20022;-82
2024/01/17 06:42:07;;;;;;;10.50;4.82;;;-8.50;98.80;;;;;;5014245;28;20263;-82
2024/01/17 06:44:32;;;;;;;10.73;4.18;;;-8.60;99.00;;;;;;5013980;28;20391;-81
2024/01/17 06:46:58;;;;;;;5.72;2.25;;;-8.50;98.90;;;;;;5013426;28;20083;-82
2024/01/17 06:49:25;;;;;;;9.60;3.60;;;-8.60;98.80;;;;;;5014521;28;20029;-83
2024/01/17 06:51:51;;;;;;;10.25;4.57;;;-8.60;98.80;;;;;;5014219;28;20064;-82
2024/01/17 06:54:17;;;;;;;6.97;3.03;;;-8.70;98.70;;;;;;5021940;28;20033;-82
2024/01/17 06:56:43;;;;;;;6.28;4.20;;;-8.70;98.70;;;;;;5020951;28;20391;-85
2024/01/17 06:59:09;;;;;;;6.25;4.07;;;-8.70;98.70;;;;;;5012553;28;20026;-82
2024/01/17 07:01:35;;;;;;;15.50;4.07;;;-8.70;98.40;;;;;;5014467;28;20022;-82
2024/01/17 07:04:04;;;;;;;13.18;4.90;;;-8.70;98.50;;;;;;5014667;28;20032;-82
2024/01/17 07:06:30;;;;;;;7.97;3.75;;;-8.70;98.60;;;;;;5012928;28;20041;-82
2024/01/17 07:08:56;;;;;;;5.95;3.78;;;-8.70;99.00;;;;;;5014489;28;20030;-82
2024/01/17 07:11:22;;;;;;;8.43;4.03;;;-8.70;98.70;;;;;;5014686;28;20053;-82
2024/01/17 07:13:48;;;;;;;8.32;4.55;;;-8.70;98.90;;;;;;5015020;28;20036;-82
2024/01/17 07:16:17;;;;;;;6.30;2.88;;;-8.70;98.90;;;;;;4996957;28;20045;-82
2024/01/17 07:18:43;;;;;;;10.65;3.97;;;-8.70;98.80;;;;;;5008889;28;20021;-83
2024/01/17 07:21:10;;;;;;;7.38;4.55;;;-8.70;98.80;;;;;;5025045;28;20398;-82
2024/01/17 07:23:38;;;;;;;25.05;4.32;;;-8.70;98.50;;;;;;5020176;28;20483;-83
2024/01/17 07:26:04;;;;;;;9.48;3.88;;;-8.70;98.60;;;;;;5018550;28;20072;-83
2024/01/17 07:28:30;;;;;;;8.45;4.05;;;-8.70;98.50;;;;;;5013759;28;20069;-82
2024/01/17 07:30:56;;;;;;;13.27;3.67;;;-8.70;98.20;;;;;;5013837;28;20029;-83
2024/01/17 07:33:22;;;;;;;3.95;2.50;;;-8.60;98.10;;;;;;5013756;28;20022;-84
2024/01/17 07:35:48;;;;;;;6.75;3.85;;;-8.60;98.00;;;;;;4995698;28;20022;-83
2024/01/17 07:38:14;;;;;;;5.00;3.05;;;-8.70;97.90;;;;;;5013066;28;20445;-85
2024/01/17 07:40:41;;;;;;;11.85;4.90;;;-8.60;98.20;;;;;;5013716;28;20033;-84
2024/01/17 07:43:07;;;;;;;9.02;3.50;;;-8.70;97.80;;;;;;4995609;28;20029;-84
2024/01/17 07:45:33;;;;;;;10.98;5.25;;;-8.60;97.80;;;;;;5013840;28;20042;-83
2024/01/17 07:47:59;;;;;;;6.30;3.83;;;-8.60;97.50;;;;;;5013590;28;20033;-84
2024/01/17 07:50:25;;;;;;;11.00;4.07;;;-8.60;97.60;;;;;;5013516;28;20097;-83
2024/01/17 07:52:51;;;;;;;5.88;4.07;;;-8.60;97.60;;;;;;5013403;28;20028;-83
2024/01/17 07:55:16;;;;;;;8.18;4.20;;;-8.60;97.60;;;;;;4996046;28;20030;-83
2024/01/17 07:57:42;;;;;;;7.78;4.28;;;-8.60;97.70;;;;;;5008724;28;20413;-84
2024/01/17 08:00:09;;;;;;;8.43;4.97;;;-8.60;97.80;;;;;;5007682;28;20467;-84
2024/01/17 08:02:36;;;;;;;8.90;4.88;;;-8.60;97.90;;;;;;5013193;28;20022;-84
2024/01/17 08:05:03;;;;;;;7.82;4.20;;;-8.60;98.00;;;;;;5013893;28;20472;-84
2024/01/17 08:07:29;;;;;;;6.43;4.28;;;-8.50;98.10;;;;;;5014222;28;20030;-84
2024/01/17 08:09:55;;;;;;;9.73;4.53;;;-8.40;98.10;;;;;;5013251;28;20180;-83
2024/01/17 08:12:21;;;;;;;5.32;3.95;;;-8.40;97.90;;;;;;5013925;28;20030;-83
2024/01/17 08:14:47;;;;;;;6.97;4.50;;;-8.40;98.00;;;;;;5014152;28;20030;-84
2024/01/17 08:17:13;;;;;;;10.48;4.45;;;-8.40;98.00;;;;;;5013813;28;20100;-86
2024/01/17 08:19:39;;;;;;;12.10;5.43;;;-8.30;97.80;;;;;;4995659;28;20065;-84
2024/01/17 08:22:05;;;;;;;10.07;5.10;;;-8.30;97.50;;;;;;4995645;28;20026;-84
2024/01/17 08:24:32;;;;;;;10.95;4.43;;;-8.40;97.30;;;;;;5012988;28;20263;-83
2024/01/17 08:26:58;;;;;;;6.15;4.55;;;-8.50;97.20;;;;;;5015949;28;20038;-84
2024/01/17 08:29:24;;;;;;;6.85;4.43;;;-8.50;97.10;;;;;;5016500;28;20022;-85
2024/01/17 08:31:50;;;;;;;7.00;4.10;;;-8.50;96.70;;;;;;4995449;28;20034;-83
2024/01/17 08:34:17;;;;;;;9.43;6.07;;;-8.70;96.40;;;;;;5012700;28;20395;-83
2024/01/17 08:36:42;;;;;;;5.30;2.87;;;-8.70;96.50;;;;;;5012646;28;20034;-84
2024/01/17 08:39:08;;;;;;;14.00;3.65;;;-8.70;96.40;;;;;;4995301;28;20056;-82
2024/01/17 08:41:35;;;;;;;18.75;5.60;;;-8.70;96.60;;;;;;4995026;28;20114;-82
2024/01/17 08:44:01;;;;;;;9.40;4.97;;;-8.80;96.60;;;;;;5012395;28;20434;-81
2024/01/17 08:46:29;;;;;;;6.45;4.07;;;-8.80;96.60;;;;;;5012264;28;20050;-83
2024/01/17 08:48:54;;;;;;;7.18;4.35;;;-8.80;96.50;;;;;;5012128;28;20503;-83
2024/01/17 08:51:24;;;;;;;8.68;3.58;;;-8.80;96.30;;;;;;5012773;28;20026;-83
2024/01/17 08:53:50;;;;;;;8.05;3.70;;;-8.80;96.50;;;;;;4997747;28;20029;-81
2024/01/17 08:56:19;;;;;;;6.30;3.58;;;-8.90;96.50;;;;;;5012492;28;20159;-83
2024/01/17 08:58:45;;;;;;;6.78;3.83;;;-8.80;96.60;;;;;;5012085;28;20018;-83
2024/01/17 09:01:10;;;;;;;11.75;4.40;;;-8.90;96.10;;;;;;5012354;28;20062;-84
2024/01/17 09:03:38;;;;;;;10.07;5.80;;;-8.80;96.30;;;;;;5012713;28;20094;-84
2024/01/17 09:06:03;;;;;;;;;;;-8.70;96.30;;;;;;5014675;28;20021;-83
2024/01/17 09:08:29;;;;;;;7.10;3.70;;;-8.60;96.30;;;;;;5021374;28;19917;-83
2024/01/17 09:10:55;;;;;;;8.05;4.57;;;-8.60;95.60;;;;;;5016582;28;20010;-84
2024/01/17 09:13:21;;;;;;;4.50;3.22;;;-8.70;95.60;;;;;;5017744;28;20058;-84
2024/01/17 09:15:47;;;;;;;9.07;4.38;;;-8.60;95.80;;;;;;5018659;28;20113;-84
2024/01/17 09:18:15;;;;;;;11.07;5.57;;;-8.50;96.00;;;;;;5017645;28;20017;-83
2024/01/17 09:20:41;;;;;;;10.65;5.57;;;-8.50;95.90;;;;;;5018167;28;20018;-83
2024/01/17 09:23:06;;;;;;;11.82;6.15;;;-8.40;95.60;;;;;;5017064;28;20041;-81
2024/01/17 09:25:32;;;;;;;4.82;3.22;;;-8.40;95.30;;;;;;5016627;28;20034;-83
2024/01/17 09:27:58;;;;;;;6.28;4.63;;;-8.30;95.20;;;;;;5016254;28;20038;-84
2024/01/17 09:30:24;;;;;;;4.65;3.13;;;-8.30;95.10;;;;;;5013866;28;20076;-85
2024/01/17 09:32:50;;;;;;;6.40;3.40;;;-8.20;95.30;;;;;;5017532;28;20038;-83
2024/01/17 09:35:16;;;;;;;7.50;3.67;;;-8.20;94.70;;;;;;5016922;28;20040;-85
2024/01/17 09:37:43;;;;;;;6.18;4.25;;;-8.20;94.80;;;;;;4999442;28;20117;-83
2024/01/17 09:40:10;;;;;;;10.50;4.53;;;-8.30;94.60;;;;;;4999020;28;20061;-83
2024/01/17 09:42:36;;;;;;;;;;;-8.20;94.50;;;;;;4999268;28;20438;-83
2024/01/17 09:45:02;;;;;;;4.77;2.97;;;-8.30;94.60;;;;;;5016241;28;19963;-83
2024/01/17 09:47:33;;;;;;;5.65;3.72;;;-8.30;94.70;;;;;;5016867;28;20041;-84
2024/01/17 09:49:59;;;;;;;7.70;4.15;;;-8.40;94.40;;;;;;5017125;28;20113;-85
2024/01/17 09:52:25;;;;;;;8.07;4.93;;;-8.40;94.60;;;;;;5015956;28;20048;-84
2024/01/17 09:54:53;;;;;;;8.55;6.40;;;-8.40;94.80;;;;;;5016124;28;20036;-85
2024/01/17 09:57:24;;;;;;;9.80;6.20;;;-8.30;94.80;;;;;;5017161;28;20017;-84
2024/01/17 09:59:55;;;;;;;6.78;4.03;;;-8.40;94.70;;;;;;5023984;28;20022;-83
2024/01/17 10:02:21;;;;;;;4.45;3.17;;;-8.50;94.90;;;;;;5018909;28;20026;-82
2024/01/17 10:04:48;;;;;;;5.30;4.33;;;-8.50;95.10;;;;;;4998051;28;20026;-82
2024/01/17 10:07:16;;;;;;;7.78;2.67;;;-8.60;94.70;;;;;;5014604;28;20290;-84
2024/01/17 10:09:44;;;;;;;9.20;5.30;;;-8.70;94.50;;;;;;5015305;28;20022;-82
2024/01/17 10:12:11;;;;;;;13.55;5.70;;;-8.70;94.70;;;;;;5014699;28;20033;-82
2024/01/17 10:14:38;;;;;;;6.28;3.15;;;-8.80;94.70;;;;;;5015308;28;20383;-83
2024/01/17 10:17:05;;;;;;;5.47;3.55;;;-8.80;94.70;;;;;;5015353;28;20510;-84
2024/01/17 10:19:31;;;;;;;8.73;5.03;;;-8.90;94.60;;;;;;5015206;28;20089;-84
2024/01/17 10:22:02;;;;;;;8.40;4.45;;;-8.90;94.80;;;;;;5015352;28;20032;-84
2024/01/17 10:24:30;;;;;;;11.20;4.25;;;-8.90;94.30;;;;;;5016063;28;20030;-82
2024/01/17 10:26:56;;;;;;;7.47;3.53;;;-9.00;94.40;;;;;;5015860;28;20040;-84
2024/01/17 10:29:22;;;;;;;7.88;5.00;;;-9.10;94.00;;;;;;5019701;28;20034;-82
2024/01/17 10:31:48;;;;;;;4.63;2.80;;;-9.10;94.20;;;;;;5015545;28;20114;-81
2024/01/17 10:34:14;;;;;;;7.30;4.53;;;-9.00;94.40;;;;;;5024351;28;20044;-83
2024/01/17 10:36:44;;;;;;;4.95;3.40;;;-9.10;94.20;;;;;;5013028;28;20026;-82
2024/01/17 10:39:11;;;;;;;6.38;3.42;;;-9.10;94.10;;;;;;5011652;28;20471;-80
2024/01/17 10:41:48;;;;;;;;;;;-9.10;94.20;;;;;;5040441;28;20022;-81
2024/01/17 10:44:17;;;;;;;;;;;-9.10;94.40;;;;;;5006286;28;19915;-82
2024/01/17 10:46:42;;;;;;;11.02;4.55;;;-9.10;94.30;;;;;;5024605;28;19964;-83
2024/01/17 10:49:08;;;;;;;3.63;2.58;;;-9.10;94.40;;;;;;5015561;28;20026;-82
2024/01/17 10:51:36;;;;;;;10.35;3.90;;;-9.10;94.50;;;;;;5015788;28;20018;-85
2024/01/17 10:54:04;;;;;;;6.28;3.75;;;-9.10;94.80;;;;;;5016412;28;20025;-83
2024/01/17 10:56:33;;;;;;;5.65;3.65;;;-9.00;94.60;;;;;;5014225;28;20482;-83
2024/01/17 10:59:00;;;;;;;4.95;3.00;;;-9.00;94.50;;;;;;5014774;28;20079;-83
2024/01/17 11:01:35;;;;;;;6.35;3.55;;;-8.90;94.60;;;;;;5015880;28;20116;-83
2024/01/17 11:04:25;;;;;;;9.48;4.53;;;-8.90;94.60;;;;;;4997332;28;20030;-81
2024/01/17 11:06:53;;;;;;;9.25;4.53;;;-8.80;94.30;;;;;;5014479;28;20121;-81
2024/01/17 11:09:25;;;;;;;7.47;3.22;;;-8.90;93.80;;;;;;5013068;28;20542;-83
2024/01/17 11:11:51;;;;;;;4.07;3.63;;;-8.90;93.90;;;;;;5013256;28;20033;-83
2024/01/17 11:14:20;;;;;;;9.10;4.57;;;-8.90;94.20;;;;;;5013258;28;20386;-83
2024/01/17 11:16:48;;;;;;;5.97;2.92;;;-8.90;94.00;;;;;;5014606;28;20281;-82
2024/01/17 11:19:17;;;;;;;5.47;2.90;;;-8.90;94.00;;;;;;5014014;28;20117;-83
2024/01/17 11:21:43;;;;;;;4.55;3.65;;;-8.80;94.10;;;;;;5013903;28;20471;-83
2024/01/17 11:24:27;;;;;;;6.70;3.80;;;-8.80;93.90;;;;;;5014116;28;20131;-84
2024/01/17 11:27:28;;;;;;;9.25;4.72;;;-8.80;93.70;;;;;;5013648;28;20084;-82
2024/01/17 11:30:32;;;;;;;6.40;4.05;;;-8.80;93.50;;;;;;5019231;28;20021;-81
2024/01/17 11:33:05;;;;;;;7.63;3.53;;;-8.70;93.70;;;;;;5001322;28;20125;-85
2024/01/17 11:35:43;;;;;;;8.88;2.75;;;-8.80;93.70;;;;;;5015239;28;20087;-84
2024/01/17 11:38:35;;;;;;;4.13;3.20;;;-8.80;93.60;;;;;;5013867;28;20030;-84
2024/01/17 11:41:07;;;;;;;7.03;4.90;;;-8.80;93.70;;;;;;5009212;28;20503;-82
2024/01/17 11:43:37;;;;;;;6.05;3.83;;;-8.80;93.80;;;;;;5013283;28;20033;-85
2024/01/17 11:46:08;;;;;;;5.47;3.63;;;-8.80;93.90;;;;;;5013684;28;20562;-84
2024/01/17 11:48:36;;;;;;;5.78;3.53;;;-8.90;94.20;;;;;;5014027;28;20173;-83
2024/01/17 11:51:14;;;;;;;4.85;3.85;;;-8.90;94.20;;;;;;5013269;28;20022;-83
2024/01/17 11:53:50;;;;;;;3.60;2.25;;;-8.90;94.20;;;;;;5013257;28;20383;-83
2024/01/17 11:56:20;;;;;;;7.30;3.22;;;-8.90;94.00;;;;;;5018453;28;20018;-83
2024/01/17 11:58:46;;;;;;;4.00;3.28;;;-9.00;93.70;;;;;;5001327;28;20032;-84
2024/01/17 12:01:23;;;;;;;5.88;3.28;;;-9.10;93.90;;;;;;5013184;28;20034;-83
2024/01/17 12:03:50;;;;;;;7.30;2.85;;;-9.00;94.20;;;;;;5013279;28;20024;-83
2024/01/17 12:06:17;;;;;;;7.82;3.03;;;-9.00;94.10;;;;;;5014624;28;20060;-82
2024/01/17 12:08:44;;;;;;;6.55;2.83;;;-9.10;93.90;;;;;;5012489;28;20036;-84
2024/01/17 12:11:10;;;;;;;9.15;4.15;;;-9.20;94.00;;;;;;5012966;28;20438;-83
2024/01/17 12:13:37;;;;;;;7.53;4.60;;;-9.20;94.00;;;;;;5012082;28;20514;-82
2024/01/17 12:16:04;;;;;;;5.45;3.05;;;-9.20;94.30;;;;;;5012972;28;20100;-84
2024/01/17 12:18:33;;;;;;;5.20;2.97;;;-9.20;94.30;;;;;;5014305;28;20034;-82
2024/01/17 12:21:02;;;;;;;5.95;3.33;;;-9.20;94.30;;;;;;5014175;28;20131;-83
2024/01/17 12:23:33;;;;;;;6.70;3.83;;;-9.20;94.20;;;;;;5014573;28;20148;-83
2024/01/17 12:26:02;;;;;;;3.78;1.73;;;-9.20;93.90;;;;;;5014699;28;20026;-83
2024/01/17 12:28:29;;;;;;;7.88;2.78;;;-9.20;93.90;;;;;;5013816;28;20029;-84
2024/01/17 12:31:03;;;;;;;6.05;4.38;;;-9.30;94.00;;;;;;4996089;28;20479;-83
2024/01/17 12:33:36;;;;;;;7.05;3.75;;;-9.30;94.00;;;;;;5016281;28;20152;-82
2024/01/17 12:36:05;;;;;;;5.70;2.58;;;-9.40;93.90;;;;;;5018871;28;20028;-81
2024/01/17 12:38:33;;;;;;;4.82;3.22;;;-9.40;94.00;;;;;;5012938;28;20132;-83
2024/01/17 12:41:00;;;;;;;4.47;2.38;;;-9.50;94.00;;;;;;5012507;28;20410;-84
2024/01/17 12:43:32;;;;;;;6.32;3.78;;;-9.50;94.00;;;;;;4994643;28;20122;-82